sensor_id;sensor_type;location;lat;lon;timestamp;temperature;humidity
23114;DHT22;11726;50.122;8.832;2023-05-23T00:01:16;17.90;99.90
23114;DHT22;11726;50.122;8.832;2023-05-23T00:03:43;17.90;99.90
23114;DHT22;11726;50.122;8.832;2023-05-23T00:06:10;17.90;99.90
23114;DHT22;11726;50.122;8.832;2023-05-23T00:08:37;17.90;99.90
23114;DHT22;11726;50.122;8.832;2023-05-23T00:11:04;17.90;99.90
23114;DHT22;11726;50.122;8.832;2023-05-23T00:13:30;17.90;99.90
23114;DHT22;11726;50.122;8.832;2023-05-23T00:16:00;17.80;99.90
23114;DHT22;11726;50.122;8.832;2023-05-23T00:18:27;17.90;99.90
23114;DHT22;11726;50.122;8.832;2023-05-23T00:20:55;17.90;99.90
23114;DHT22;11726;50.122;8.832;2023-05-23T00:23:22;17.90;99.90
23114;DHT22;11726;50.122;8.832;2023-05-23T00:25:50;17.90;99.90
23114;DHT22;11726;50.122;8.832;2023-05-23T00:28:19;17.90;99.90
23114;DHT22;11726;50.122;8.832;2023-05-23T00:30:46;17.90;99.90
23114;DHT22;11726;50.122;8.832;2023-05-23T00:33:16;17.90;99.90
23114;DHT22;11726;50.122;8.832;2023-05-23T00:35:42;17.90;99.90
23114;DHT22;11726;50.122;8.832;2023-05-23T00:38:09;17.90;99.90
23114;DHT22;11726;50.122;8.832;2023-05-23T00:40:36;17.90;99.90
23114;DHT22;11726;50.122;8.832;2023-05-23T00:43:03;17.90;99.90
23114;DHT22;11726;50.122;8.832;2023-05-23T00:45:30;17.90;99.90
23114;DHT22;11726;50.122;8.832;2023-05-23T00:47:57;18.00;99.90
23114;DHT22;11726;50.122;8.832;2023-05-23T00:50:26;18.00;99.90
23114;DHT22;11726;50.122;8.832;2023-05-23T00:52:58;18.00;99.90
23114;DHT22;11726;50.122;8.832;2023-05-23T00:55:26;18.00;99.90
23114;DHT22;11726;50.122;8.832;2023-05-23T00:57:53;18.00;99.90
23114;DHT22;11726;50.122;8.832;2023-05-23T01:00:23;18.00;99.90
23114;DHT22;11726;50.122;8.832;2023-05-23T01:02:51;18.00;99.90
23114;DHT22;11726;50.122;8.832;2023-05-23T01:05:19;18.00;99.90
23114;DHT22;11726;50.122;8.832;2023-05-23T01:07:49;18.00;99.90
23114;DHT22;11726;50.122;8.832;2023-05-23T01:10:21;18.00;99.90
23114;DHT22;11726;50.122;8.832;2023-05-23T01:13:16;17.90;99.90
23114;DHT22;11726;50.122;8.832;2023-05-23T01:18:26;18.00;99.90
23114;DHT22;11726;50.122;8.832;2023-05-23T01:21:05;17.90;99.90
23114;DHT22;11726;50.122;8.832;2023-05-23T01:23:47;17.80;99.90
23114;DHT22;11726;50.122;8.832;2023-05-23T01:28:54;17.80;99.90
23114;DHT22;11726;50.122;8.832;2023-05-23T01:31:24;17.70;99.90
23114;DHT22;11726;50.122;8.832;2023-05-23T01:33:52;17.80;99.90
23114;DHT22;11726;50.122;8.832;2023-05-23T01:36:19;17.70;99.90
23114;DHT22;11726;50.122;8.832;2023-05-23T01:38:46;17.70;99.90
23114;DHT22;11726;50.122;8.832;2023-05-23T01:41:13;17.70;99.90
23114;DHT22;11726;50.122;8.832;2023-05-23T01:43:39;17.60;99.90
23114;DHT22;11726;50.122;8.832;2023-05-23T01:46:07;17.70;99.90
23114;DHT22;11726;50.122;8.832;2023-05-23T01:48:34;17.60;99.90
23114;DHT22;11726;50.122;8.832;2023-05-23T01:51:02;17.60;99.90
23114;DHT22;11726;50.122;8.832;2023-05-23T01:53:29;17.60;99.90
23114;DHT22;11726;50.122;8.832;2023-05-23T01:55:56;17.60;99.90
23114;DHT22;11726;50.122;8.832;2023-05-23T01:58:23;17.60;99.90
23114;DHT22;11726;50.122;8.832;2023-05-23T02:00:50;17.60;99.90
23114;DHT22;11726;50.122;8.832;2023-05-23T02:03:17;17.60;99.90
23114;DHT22;11726;50.122;8.832;2023-05-23T02:05:43;17.60;99.90
23114;DHT22;11726;50.122;8.832;2023-05-23T02:08:10;17.60;99.90
23114;DHT22;11726;50.122;8.832;2023-05-23T02:10:37;17.60;99.90
23114;DHT22;11726;50.122;8.832;2023-05-23T02:13:03;17.60;99.90
23114;DHT22;11726;50.122;8.832;2023-05-23T02:15:30;17.70;99.90
23114;DHT22;11726;50.122;8.832;2023-05-23T02:17:57;17.70;99.90
23114;DHT22;11726;50.122;8.832;2023-05-23T02:20:24;17.70;99.90
23114;DHT22;11726;50.122;8.832;2023-05-23T02:22:51;17.60;99.90
23114;DHT22;11726;50.122;8.832;2023-05-23T02:25:18;17.60;99.90
23114;DHT22;11726;50.122;8.832;2023-05-23T02:27:44;17.60;99.90
23114;DHT22;11726;50.122;8.832;2023-05-23T02:30:11;17.50;99.90
23114;DHT22;11726;50.122;8.832;2023-05-23T02:32:38;17.50;99.90
23114;DHT22;11726;50.122;8.832;2023-05-23T02:35:05;17.40;99.90
23114;DHT22;11726;50.122;8.832;2023-05-23T02:37:32;17.40;99.90
23114;DHT22;11726;50.122;8.832;2023-05-23T02:39:58;17.30;99.90
23114;DHT22;11726;50.122;8.832;2023-05-23T02:42:25;17.30;99.90
23114;DHT22;11726;50.122;8.832;2023-05-23T02:44:53;17.20;99.90
23114;DHT22;11726;50.122;8.832;2023-05-23T02:47:20;17.30;99.90
23114;DHT22;11726;50.122;8.832;2023-05-23T02:49:46;17.20;99.90
23114;DHT22;11726;50.122;8.832;2023-05-23T02:52:13;17.20;99.90
23114;DHT22;11726;50.122;8.832;2023-05-23T02:54:39;17.20;99.90
23114;DHT22;11726;50.122;8.832;2023-05-23T02:57:06;17.10;99.90
23114;DHT22;11726;50.122;8.832;2023-05-23T02:59:33;17.20;99.90
23114;DHT22;11726;50.122;8.832;2023-05-23T03:02:00;17.10;99.90
23114;DHT22;11726;50.122;8.832;2023-05-23T03:04:26;17.10;99.90
23114;DHT22;11726;50.122;8.832;2023-05-23T03:06:53;17.10;99.90
23114;DHT22;11726;50.122;8.832;2023-05-23T03:09:20;17.10;99.90
23114;DHT22;11726;50.122;8.832;2023-05-23T03:11:47;17.00;99.90
23114;DHT22;11726;50.122;8.832;2023-05-23T03:14:14;17.00;99.90
23114;DHT22;11726;50.122;8.832;2023-05-23T03:16:40;17.00;99.90
23114;DHT22;11726;50.122;8.832;2023-05-23T03:19:07;17.00;99.90
23114;DHT22;11726;50.122;8.832;2023-05-23T03:21:34;16.90;99.90
23114;DHT22;11726;50.122;8.832;2023-05-23T03:24:00;16.90;99.90
23114;DHT22;11726;50.122;8.832;2023-05-23T03:26:27;16.90;99.90
23114;DHT22;11726;50.122;8.832;2023-05-23T03:28:54;16.90;99.90
23114;DHT22;11726;50.122;8.832;2023-05-23T03:31:21;16.90;99.90
23114;DHT22;11726;50.122;8.832;2023-05-23T03:33:49;16.90;99.90
23114;DHT22;11726;50.122;8.832;2023-05-23T03:36:16;16.90;99.90
23114;DHT22;11726;50.122;8.832;2023-05-23T03:38:42;16.80;99.90
23114;DHT22;11726;50.122;8.832;2023-05-23T03:41:09;16.70;99.90
23114;DHT22;11726;50.122;8.832;2023-05-23T03:43:36;16.70;99.90
23114;DHT22;11726;50.122;8.832;2023-05-23T03:46:03;16.60;99.90
23114;DHT22;11726;50.122;8.832;2023-05-23T03:48:29;16.60;99.90
23114;DHT22;11726;50.122;8.832;2023-05-23T03:50:56;16.60;99.90
23114;DHT22;11726;50.122;8.832;2023-05-23T03:53:23;16.60;99.90
23114;DHT22;11726;50.122;8.832;2023-05-23T03:55:49;16.50;99.90
23114;DHT22;11726;50.122;8.832;2023-05-23T03:58:16;16.50;99.90
23114;DHT22;11726;50.122;8.832;2023-05-23T04:00:42;16.50;99.90
23114;DHT22;11726;50.122;8.832;2023-05-23T04:03:09;16.40;99.90
23114;DHT22;11726;50.122;8.832;2023-05-23T04:05:37;16.40;99.90
23114;DHT22;11726;50.122;8.832;2023-05-23T04:08:03;16.40;99.90
23114;DHT22;11726;50.122;8.832;2023-05-23T04:10:30;16.30;99.90
23114;DHT22;11726;50.122;8.832;2023-05-23T04:12:57;16.30;99.90
23114;DHT22;11726;50.122;8.832;2023-05-23T04:15:24;16.20;99.90
23114;DHT22;11726;50.122;8.832;2023-05-23T04:17:51;16.20;99.90
23114;DHT22;11726;50.122;8.832;2023-05-23T04:20:18;16.10;99.90
23114;DHT22;11726;50.122;8.832;2023-05-23T04:22:44;16.00;99.90
23114;DHT22;11726;50.122;8.832;2023-05-23T04:25:11;16.00;99.90
23114;DHT22;11726;50.122;8.832;2023-05-23T04:27:39;16.10;99.90
23114;DHT22;11726;50.122;8.832;2023-05-23T04:30:06;16.10;99.90
23114;DHT22;11726;50.122;8.832;2023-05-23T04:32:36;16.10;99.90
23114;DHT22;11726;50.122;8.832;2023-05-23T04:35:03;16.10;99.90
23114;DHT22;11726;50.122;8.832;2023-05-23T04:37:30;16.20;99.90
23114;DHT22;11726;50.122;8.832;2023-05-23T04:39:58;16.20;99.90
23114;DHT22;11726;50.122;8.832;2023-05-23T04:42:29;16.30;99.90
23114;DHT22;11726;50.122;8.832;2023-05-23T04:44:55;16.30;99.90
23114;DHT22;11726;50.122;8.832;2023-05-23T04:47:27;16.30;99.90
23114;DHT22;11726;50.122;8.832;2023-05-23T04:49:54;16.30;99.90
23114;DHT22;11726;50.122;8.832;2023-05-23T04:52:22;16.30;99.90
23114;DHT22;11726;50.122;8.832;2023-05-23T04:54:49;16.30;99.90
23114;DHT22;11726;50.122;8.832;2023-05-23T04:57:16;16.30;99.90
23114;DHT22;11726;50.122;8.832;2023-05-23T04:59:43;16.40;99.90
23114;DHT22;11726;50.122;8.832;2023-05-23T05:02:09;16.40;99.90
23114;DHT22;11726;50.122;8.832;2023-05-23T05:04:36;16.30;99.90
23114;DHT22;11726;50.122;8.832;2023-05-23T05:07:03;16.30;99.90
23114;DHT22;11726;50.122;8.832;2023-05-23T05:09:30;16.40;99.90
23114;DHT22;11726;50.122;8.832;2023-05-23T05:11:57;16.40;99.90
23114;DHT22;11726;50.122;8.832;2023-05-23T05:14:25;16.40;99.90
23114;DHT22;11726;50.122;8.832;2023-05-23T05:16:53;16.40;99.90
23114;DHT22;11726;50.122;8.832;2023-05-23T05:19:23;16.50;99.90
23114;DHT22;11726;50.122;8.832;2023-05-23T05:21:50;16.50;99.90
23114;DHT22;11726;50.122;8.832;2023-05-23T05:24:17;16.50;99.90
23114;DHT22;11726;50.122;8.832;2023-05-23T05:26:47;16.50;99.90
23114;DHT22;11726;50.122;8.832;2023-05-23T05:29:14;16.40;99.90
23114;DHT22;11726;50.122;8.832;2023-05-23T05:31:41;16.50;99.90
23114;DHT22;11726;50.122;8.832;2023-05-23T05:34:10;16.50;99.90
23114;DHT22;11726;50.122;8.832;2023-05-23T05:36:38;16.60;99.90
23114;DHT22;11726;50.122;8.832;2023-05-23T05:39:11;16.60;99.90
23114;DHT22;11726;50.122;8.832;2023-05-23T05:41:39;16.60;99.90
23114;DHT22;11726;50.122;8.832;2023-05-23T05:44:07;16.70;99.90
23114;DHT22;11726;50.122;8.832;2023-05-23T05:46:33;16.60;99.90
23114;DHT22;11726;50.122;8.832;2023-05-23T05:49:00;16.60;99.90
23114;DHT22;11726;50.122;8.832;2023-05-23T05:51:27;16.60;99.90
23114;DHT22;11726;50.122;8.832;2023-05-23T05:53:54;16.60;99.90
23114;DHT22;11726;50.122;8.832;2023-05-23T05:56:21;16.70;99.90
23114;DHT22;11726;50.122;8.832;2023-05-23T05:58:48;16.60;99.90
23114;DHT22;11726;50.122;8.832;2023-05-23T06:01:15;16.50;99.90
23114;DHT22;11726;50.122;8.832;2023-05-23T06:03:41;16.50;99.90
23114;DHT22;11726;50.122;8.832;2023-05-23T06:06:08;16.50;99.90
23114;DHT22;11726;50.122;8.832;2023-05-23T06:08:35;16.50;99.90
23114;DHT22;11726;50.122;8.832;2023-05-23T06:11:02;16.50;99.90
23114;DHT22;11726;50.122;8.832;2023-05-23T06:13:29;16.40;99.90
23114;DHT22;11726;50.122;8.832;2023-05-23T06:15:55;16.40;99.90
23114;DHT22;11726;50.122;8.832;2023-05-23T06:18:23;16.30;99.90
23114;DHT22;11726;50.122;8.832;2023-05-23T06:20:50;16.40;99.90
23114;DHT22;11726;50.122;8.832;2023-05-23T06:23:17;16.40;99.90
23114;DHT22;11726;50.122;8.832;2023-05-23T06:25:43;16.40;99.90
23114;DHT22;11726;50.122;8.832;2023-05-23T06:28:10;16.50;99.90
23114;DHT22;11726;50.122;8.832;2023-05-23T06:30:37;16.50;99.90
23114;DHT22;11726;50.122;8.832;2023-05-23T06:33:04;16.50;99.90
23114;DHT22;11726;50.122;8.832;2023-05-23T06:35:31;16.50;99.90
23114;DHT22;11726;50.122;8.832;2023-05-23T06:37:58;16.50;99.90
23114;DHT22;11726;50.122;8.832;2023-05-23T06:40:25;16.60;99.90
23114;DHT22;11726;50.122;8.832;2023-05-23T06:42:51;16.60;99.90
23114;DHT22;11726;50.122;8.832;2023-05-23T06:45:18;16.60;99.90
23114;DHT22;11726;50.122;8.832;2023-05-23T06:47:44;16.60;99.90
23114;DHT22;11726;50.122;8.832;2023-05-23T06:50:13;16.70;99.90
23114;DHT22;11726;50.122;8.832;2023-05-23T06:52:40;16.70;99.90
23114;DHT22;11726;50.122;8.832;2023-05-23T06:55:08;16.80;99.90
23114;DHT22;11726;50.122;8.832;2023-05-23T06:57:35;16.90;99.90
23114;DHT22;11726;50.122;8.832;2023-05-23T07:00:02;17.10;99.90
23114;DHT22;11726;50.122;8.832;2023-05-23T07:02:29;17.40;99.90
23114;DHT22;11726;50.122;8.832;2023-05-23T07:04:55;17.50;99.90
23114;DHT22;11726;50.122;8.832;2023-05-23T07:07:22;17.60;99.90
23114;DHT22;11726;50.122;8.832;2023-05-23T07:09:49;17.80;99.90
23114;DHT22;11726;50.122;8.832;2023-05-23T07:12:16;17.90;99.90
23114;DHT22;11726;50.122;8.832;2023-05-23T07:14:42;18.10;99.90
23114;DHT22;11726;50.122;8.832;2023-05-23T07:17:09;18.20;99.90
23114;DHT22;11726;50.122;8.832;2023-05-23T07:19:36;18.20;99.90
23114;DHT22;11726;50.122;8.832;2023-05-23T07:22:03;18.40;99.90
23114;DHT22;11726;50.122;8.832;2023-05-23T07:24:30;18.50;99.90
23114;DHT22;11726;50.122;8.832;2023-05-23T07:26:57;18.50;99.90
23114;DHT22;11726;50.122;8.832;2023-05-23T07:29:23;18.60;99.90
23114;DHT22;11726;50.122;8.832;2023-05-23T07:31:50;18.50;99.90
23114;DHT22;11726;50.122;8.832;2023-05-23T07:34:17;18.40;99.90
23114;DHT22;11726;50.122;8.832;2023-05-23T07:36:44;18.40;99.90
23114;DHT22;11726;50.122;8.832;2023-05-23T07:39:10;18.30;99.90
23114;DHT22;11726;50.122;8.832;2023-05-23T07:41:37;18.30;99.90
23114;DHT22;11726;50.122;8.832;2023-05-23T07:44:04;18.20;99.90
23114;DHT22;11726;50.122;8.832;2023-05-23T07:46:32;18.20;99.90
23114;DHT22;11726;50.122;8.832;2023-05-23T07:48:59;18.30;99.90
23114;DHT22;11726;50.122;8.832;2023-05-23T07:51:26;18.30;99.90
23114;DHT22;11726;50.122;8.832;2023-05-23T07:53:52;18.20;99.90
23114;DHT22;11726;50.122;8.832;2023-05-23T07:56:19;18.20;99.90
23114;DHT22;11726;50.122;8.832;2023-05-23T07:58:46;18.10;99.90
23114;DHT22;11726;50.122;8.832;2023-05-23T08:01:13;18.40;99.90
23114;DHT22;11726;50.122;8.832;2023-05-23T08:03:39;18.50;99.90
23114;DHT22;11726;50.122;8.832;2023-05-23T08:06:06;18.40;99.90
23114;DHT22;11726;50.122;8.832;2023-05-23T08:08:34;18.50;99.90
23114;DHT22;11726;50.122;8.832;2023-05-23T08:11:01;18.60;99.90
23114;DHT22;11726;50.122;8.832;2023-05-23T08:13:28;18.60;99.90
23114;DHT22;11726;50.122;8.832;2023-05-23T08:15:55;18.70;99.90
23114;DHT22;11726;50.122;8.832;2023-05-23T08:18:22;18.90;99.90
23114;DHT22;11726;50.122;8.832;2023-05-23T08:20:48;18.80;99.90
23114;DHT22;11726;50.122;8.832;2023-05-23T08:23:16;18.70;99.90
23114;DHT22;11726;50.122;8.832;2023-05-23T08:25:43;18.70;99.90
23114;DHT22;11726;50.122;8.832;2023-05-23T08:28:10;18.30;99.90
23114;DHT22;11726;50.122;8.832;2023-05-23T08:30:36;18.30;99.90
23114;DHT22;11726;50.122;8.832;2023-05-23T08:33:03;18.40;99.90
23114;DHT22;11726;50.122;8.832;2023-05-23T08:35:30;18.40;99.90
23114;DHT22;11726;50.122;8.832;2023-05-23T08:38:05;18.70;99.90
23114;DHT22;11726;50.122;8.832;2023-05-23T08:40:33;18.90;99.90
23114;DHT22;11726;50.122;8.832;2023-05-23T08:43:01;19.10;99.90
23114;DHT22;11726;50.122;8.832;2023-05-23T08:45:28;19.40;99.90
23114;DHT22;11726;50.122;8.832;2023-05-23T08:47:59;19.50;99.90
23114;DHT22;11726;50.122;8.832;2023-05-23T08:50:29;19.70;99.90
23114;DHT22;11726;50.122;8.832;2023-05-23T08:52:57;19.20;99.90
23114;DHT22;11726;50.122;8.832;2023-05-23T08:55:27;19.20;99.90
23114;DHT22;11726;50.122;8.832;2023-05-23T08:57:56;19.50;99.90
23114;DHT22;11726;50.122;8.832;2023-05-23T09:00:25;19.70;99.90
23114;DHT22;11726;50.122;8.832;2023-05-23T09:02:52;19.90;99.90
23114;DHT22;11726;50.122;8.832;2023-05-23T09:05:20;20.00;99.90
23114;DHT22;11726;50.122;8.832;2023-05-23T09:07:48;20.20;99.90
23114;DHT22;11726;50.122;8.832;2023-05-23T09:10:15;20.60;99.90
23114;DHT22;11726;50.122;8.832;2023-05-23T09:12:48;20.60;99.90
23114;DHT22;11726;50.122;8.832;2023-05-23T09:15:15;20.40;99.90
23114;DHT22;11726;50.122;8.832;2023-05-23T09:17:43;20.30;99.90
23114;DHT22;11726;50.122;8.832;2023-05-23T09:20:15;20.10;99.90
23114;DHT22;11726;50.122;8.832;2023-05-23T09:22:48;19.70;99.90
23114;DHT22;11726;50.122;8.832;2023-05-23T09:25:15;19.30;99.90
23114;DHT22;11726;50.122;8.832;2023-05-23T09:27:42;19.20;99.90
23114;DHT22;11726;50.122;8.832;2023-05-23T09:30:13;19.20;99.90
23114;DHT22;11726;50.122;8.832;2023-05-23T09:32:40;19.20;99.90
23114;DHT22;11726;50.122;8.832;2023-05-23T09:35:08;19.30;99.90
23114;DHT22;11726;50.122;8.832;2023-05-23T09:37:42;19.30;99.90
23114;DHT22;11726;50.122;8.832;2023-05-23T09:40:13;19.50;99.90
23114;DHT22;11726;50.122;8.832;2023-05-23T09:42:41;19.40;99.90
23114;DHT22;11726;50.122;8.832;2023-05-23T09:45:13;19.40;99.90
23114;DHT22;11726;50.122;8.832;2023-05-23T09:47:50;19.60;99.90
23114;DHT22;11726;50.122;8.832;2023-05-23T09:50:20;19.60;99.90
23114;DHT22;11726;50.122;8.832;2023-05-23T09:52:47;19.50;99.90
23114;DHT22;11726;50.122;8.832;2023-05-23T09:55:14;19.50;99.90
23114;DHT22;11726;50.122;8.832;2023-05-23T09:57:42;19.60;99.90
23114;DHT22;11726;50.122;8.832;2023-05-23T10:00:10;19.30;99.90
23114;DHT22;11726;50.122;8.832;2023-05-23T10:02:57;19.20;99.90
23114;DHT22;11726;50.122;8.832;2023-05-23T10:05:44;19.30;99.90
23114;DHT22;11726;50.122;8.832;2023-05-23T10:13:27;19.40;99.90
23114;DHT22;11726;50.122;8.832;2023-05-23T10:16:06;19.30;99.90
23114;DHT22;11726;50.122;8.832;2023-05-23T10:18:42;19.30;99.90
23114;DHT22;11726;50.122;8.832;2023-05-23T10:21:27;19.40;99.90
23114;DHT22;11726;50.122;8.832;2023-05-23T10:23:58;19.10;99.90
23114;DHT22;11726;50.122;8.832;2023-05-23T10:26:26;19.20;99.90
23114;DHT22;11726;50.122;8.832;2023-05-23T10:28:54;19.10;99.90
23114;DHT22;11726;50.122;8.832;2023-05-23T10:31:22;19.00;99.90
23114;DHT22;11726;50.122;8.832;2023-05-23T10:33:57;19.00;99.90
23114;DHT22;11726;50.122;8.832;2023-05-23T10:37:05;18.90;99.90
23114;DHT22;11726;50.122;8.832;2023-05-23T10:39:45;19.00;99.90
23114;DHT22;11726;50.122;8.832;2023-05-23T10:42:19;18.90;99.90
23114;DHT22;11726;50.122;8.832;2023-05-23T10:44:50;19.00;99.90
23114;DHT22;11726;50.122;8.832;2023-05-23T10:47:25;19.20;99.90
23114;DHT22;11726;50.122;8.832;2023-05-23T10:49:54;19.30;99.90
23114;DHT22;11726;50.122;8.832;2023-05-23T10:52:23;19.50;99.90
23114;DHT22;11726;50.122;8.832;2023-05-23T10:54:52;19.80;99.90
23114;DHT22;11726;50.122;8.832;2023-05-23T10:57:25;19.90;99.90
23114;DHT22;11726;50.122;8.832;2023-05-23T10:59:54;20.00;99.90
23114;DHT22;11726;50.122;8.832;2023-05-23T11:02:26;19.90;99.90
23114;DHT22;11726;50.122;8.832;2023-05-23T11:05:18;20.00;99.90
23114;DHT22;11726;50.122;8.832;2023-05-23T11:07:48;19.90;99.90
23114;DHT22;11726;50.122;8.832;2023-05-23T11:10:31;19.90;99.90
23114;DHT22;11726;50.122;8.832;2023-05-23T11:13:07;19.90;99.90
23114;DHT22;11726;50.122;8.832;2023-05-23T11:15:42;19.90;99.90
23114;DHT22;11726;50.122;8.832;2023-05-23T11:18:19;19.80;99.90
23114;DHT22;11726;50.122;8.832;2023-05-23T11:20:46;19.50;99.90
23114;DHT22;11726;50.122;8.832;2023-05-23T11:23:14;19.40;99.90
23114;DHT22;11726;50.122;8.832;2023-05-23T11:25:43;19.30;99.90
23114;DHT22;11726;50.122;8.832;2023-05-23T11:28:11;19.00;99.90
23114;DHT22;11726;50.122;8.832;2023-05-23T11:30:39;18.90;99.90
23114;DHT22;11726;50.122;8.832;2023-05-23T11:33:08;19.10;99.90
23114;DHT22;11726;50.122;8.832;2023-05-23T11:35:39;19.20;99.90
23114;DHT22;11726;50.122;8.832;2023-05-23T11:38:06;19.30;99.90
23114;DHT22;11726;50.122;8.832;2023-05-23T11:40:35;19.30;99.90
23114;DHT22;11726;50.122;8.832;2023-05-23T11:43:04;19.10;99.90
23114;DHT22;11726;50.122;8.832;2023-05-23T11:45:32;19.20;99.90
23114;DHT22;11726;50.122;8.832;2023-05-23T11:48:10;19.20;99.90
23114;DHT22;11726;50.122;8.832;2023-05-23T11:50:48;19.20;99.90
23114;DHT22;11726;50.122;8.832;2023-05-23T11:53:15;19.30;99.90
23114;DHT22;11726;50.122;8.832;2023-05-23T11:55:55;19.50;99.90
23114;DHT22;11726;50.122;8.832;2023-05-23T11:58:28;19.60;99.90
23114;DHT22;11726;50.122;8.832;2023-05-23T12:01:07;19.70;99.90
23114;DHT22;11726;50.122;8.832;2023-05-23T12:03:34;19.70;99.90
23114;DHT22;11726;50.122;8.832;2023-05-23T12:06:10;19.90;99.90
23114;DHT22;11726;50.122;8.832;2023-05-23T12:08:39;19.90;99.90
23114;DHT22;11726;50.122;8.832;2023-05-23T12:11:06;19.80;99.90
23114;DHT22;11726;50.122;8.832;2023-05-23T12:13:33;19.80;99.90
23114;DHT22;11726;50.122;8.832;2023-05-23T12:16:01;19.70;99.90
23114;DHT22;11726;50.122;8.832;2023-05-23T12:18:32;19.70;99.90
23114;DHT22;11726;50.122;8.832;2023-05-23T12:21:03;19.80;99.90
23114;DHT22;11726;50.122;8.832;2023-05-23T12:23:34;19.60;99.90
23114;DHT22;11726;50.122;8.832;2023-05-23T12:26:04;19.60;99.90
23114;DHT22;11726;50.122;8.832;2023-05-23T12:28:37;19.80;99.90
23114;DHT22;11726;50.122;8.832;2023-05-23T12:31:11;19.90;99.90
23114;DHT22;11726;50.122;8.832;2023-05-23T12:33:40;19.80;99.90
23114;DHT22;11726;50.122;8.832;2023-05-23T12:36:08;19.80;99.90
23114;DHT22;11726;50.122;8.832;2023-05-23T12:38:36;19.90;99.90
23114;DHT22;11726;50.122;8.832;2023-05-23T12:41:10;20.00;99.90
23114;DHT22;11726;50.122;8.832;2023-05-23T12:43:38;19.90;99.90
23114;DHT22;11726;50.122;8.832;2023-05-23T12:46:06;19.70;99.90
23114;DHT22;11726;50.122;8.832;2023-05-23T12:48:33;19.70;99.90
23114;DHT22;11726;50.122;8.832;2023-05-23T12:51:00;19.60;99.90
23114;DHT22;11726;50.122;8.832;2023-05-23T12:53:28;19.60;99.90
23114;DHT22;11726;50.122;8.832;2023-05-23T12:55:55;19.60;99.90
23114;DHT22;11726;50.122;8.832;2023-05-23T12:58:21;19.50;99.90
23114;DHT22;11726;50.122;8.832;2023-05-23T13:00:49;19.50;99.90
23114;DHT22;11726;50.122;8.832;2023-05-23T13:03:17;19.50;99.90
23114;DHT22;11726;50.122;8.832;2023-05-23T13:05:43;19.50;99.90
23114;DHT22;11726;50.122;8.832;2023-05-23T13:08:10;19.70;99.90
23114;DHT22;11726;50.122;8.832;2023-05-23T13:10:38;19.70;99.90
23114;DHT22;11726;50.122;8.832;2023-05-23T13:13:04;19.60;99.90
23114;DHT22;11726;50.122;8.832;2023-05-23T13:15:31;19.80;99.90
23114;DHT22;11726;50.122;8.832;2023-05-23T13:17:59;19.60;99.90
23114;DHT22;11726;50.122;8.832;2023-05-23T13:20:25;19.40;99.90
23114;DHT22;11726;50.122;8.832;2023-05-23T13:22:56;19.20;99.90
23114;DHT22;11726;50.122;8.832;2023-05-23T13:25:23;19.00;99.90
23114;DHT22;11726;50.122;8.832;2023-05-23T13:27:50;19.00;99.90
23114;DHT22;11726;50.122;8.832;2023-05-23T13:30:19;19.00;99.90
23114;DHT22;11726;50.122;8.832;2023-05-23T13:32:46;19.00;99.90
23114;DHT22;11726;50.122;8.832;2023-05-23T13:35:16;19.00;99.90
23114;DHT22;11726;50.122;8.832;2023-05-23T13:37:43;18.90;99.90
23114;DHT22;11726;50.122;8.832;2023-05-23T13:40:14;19.00;99.90
23114;DHT22;11726;50.122;8.832;2023-05-23T13:42:44;19.00;99.90
23114;DHT22;11726;50.122;8.832;2023-05-23T13:45:11;18.90;99.90
23114;DHT22;11726;50.122;8.832;2023-05-23T13:47:38;18.90;99.90
23114;DHT22;11726;50.122;8.832;2023-05-23T13:50:06;18.80;99.90
23114;DHT22;11726;50.122;8.832;2023-05-23T13:52:32;18.80;99.90
23114;DHT22;11726;50.122;8.832;2023-05-23T13:54:59;18.80;99.90
23114;DHT22;11726;50.122;8.832;2023-05-23T13:57:27;18.80;99.90
23114;DHT22;11726;50.122;8.832;2023-05-23T13:59:53;18.80;99.90
23114;DHT22;11726;50.122;8.832;2023-05-23T14:02:20;18.90;99.90
23114;DHT22;11726;50.122;8.832;2023-05-23T14:04:48;19.10;99.90
23114;DHT22;11726;50.122;8.832;2023-05-23T14:07:18;19.20;99.90
23114;DHT22;11726;50.122;8.832;2023-05-23T14:09:44;19.40;99.90
23114;DHT22;11726;50.122;8.832;2023-05-23T14:12:11;19.60;99.90
23114;DHT22;11726;50.122;8.832;2023-05-23T14:14:38;19.90;99.90
23114;DHT22;11726;50.122;8.832;2023-05-23T14:17:04;20.00;99.90
23114;DHT22;11726;50.122;8.832;2023-05-23T14:19:31;20.00;99.90
23114;DHT22;11726;50.122;8.832;2023-05-23T14:21:58;19.90;99.90
23114;DHT22;11726;50.122;8.832;2023-05-23T14:24:25;19.90;99.90
23114;DHT22;11726;50.122;8.832;2023-05-23T14:26:51;19.80;99.90
23114;DHT22;11726;50.122;8.832;2023-05-23T14:29:18;19.80;99.90
23114;DHT22;11726;50.122;8.832;2023-05-23T14:31:45;20.00;99.90
23114;DHT22;11726;50.122;8.832;2023-05-23T14:34:12;19.80;99.90
23114;DHT22;11726;50.122;8.832;2023-05-23T14:36:38;19.60;99.90
23114;DHT22;11726;50.122;8.832;2023-05-23T14:39:05;19.60;99.90
23114;DHT22;11726;50.122;8.832;2023-05-23T14:41:36;19.50;99.90
23114;DHT22;11726;50.122;8.832;2023-05-23T14:44:02;19.30;99.90
23114;DHT22;11726;50.122;8.832;2023-05-23T14:46:30;19.20;99.90
23114;DHT22;11726;50.122;8.832;2023-05-23T14:48:57;19.20;99.90
23114;DHT22;11726;50.122;8.832;2023-05-23T14:51:23;19.10;99.90
23114;DHT22;11726;50.122;8.832;2023-05-23T14:54:10;18.90;99.90
23114;DHT22;11726;50.122;8.832;2023-05-23T14:56:37;18.80;99.90
23114;DHT22;11726;50.122;8.832;2023-05-23T14:59:06;18.70;99.90
23114;DHT22;11726;50.122;8.832;2023-05-23T15:01:33;18.70;99.90
23114;DHT22;11726;50.122;8.832;2023-05-23T15:04:03;18.60;99.90
23114;DHT22;11726;50.122;8.832;2023-05-23T15:06:31;18.60;99.90
23114;DHT22;11726;50.122;8.832;2023-05-23T15:08:58;18.50;99.90
23114;DHT22;11726;50.122;8.832;2023-05-23T15:11:25;18.30;99.90
23114;DHT22;11726;50.122;8.832;2023-05-23T15:13:53;18.50;99.90
23114;DHT22;11726;50.122;8.832;2023-05-23T15:16:20;18.60;99.90
23114;DHT22;11726;50.122;8.832;2023-05-23T15:18:47;18.70;99.90
23114;DHT22;11726;50.122;8.832;2023-05-23T15:21:14;19.00;99.90
23114;DHT22;11726;50.122;8.832;2023-05-23T15:23:41;19.00;99.90
23114;DHT22;11726;50.122;8.832;2023-05-23T15:26:07;19.20;99.90
23114;DHT22;11726;50.122;8.832;2023-05-23T15:28:34;19.40;99.90
23114;DHT22;11726;50.122;8.832;2023-05-23T15:31:01;19.70;99.90
23114;DHT22;11726;50.122;8.832;2023-05-23T15:33:27;20.30;99.90
23114;DHT22;11726;50.122;8.832;2023-05-23T15:35:54;21.30;99.90
23114;DHT22;11726;50.122;8.832;2023-05-23T15:38:23;21.40;99.90
23114;DHT22;11726;50.122;8.832;2023-05-23T15:40:49;20.90;99.90
23114;DHT22;11726;50.122;8.832;2023-05-23T15:43:19;20.50;99.90
23114;DHT22;11726;50.122;8.832;2023-05-23T15:45:49;20.20;99.90
23114;DHT22;11726;50.122;8.832;2023-05-23T15:48:16;20.10;99.90